Pagrindinis puslapis
METAR-TAF:

METAR-TAF

Oro uostai :

Bankokas, Tailandas

platuma: 13-54-45N, ilguma: 100-36-24E, Aukštis: 4 m

Dabartinis oras

Ataskaita buvo paskelbta 35 minutes, ne 14:00 UTC
Vėjas 3 kt iš Rytų, svyruoja nuo Rytų/Šiaurės Rytų ir Pietryčių
Temperatūra 29°C
Drėgmė 58%
Slėgis 1013 hPa
Matomumas 10 km arba daugiau
Mažai debesys ne aukštis 3000 ft

METAR: VTBD 201400Z 09003KT 070V130 9999 FEW030 29/20 Q1013 NOSIG

Laikas: 21:35 (14:35 UTC)

Prognozė

Ataskaita buvo paskelbta 3 valandos ir 35 minutes, ne 11:00 UTC
Prognozė galioja nuo 20 metu 12 UTC su 21 metu 18 UTC
Vėjas 8 kt iš Rytų
Matomumas: 9000 m
Mažai debesys ne aukštis 2500 ft

TAF: VTBD 201100Z 2012/2118 08008KT 9000 FEW025

Orai ataskaitas ir orų prognozės (METAR, TAF).

turimą stotys yra geltonos ir raudonos taškus žemėlapyje.

Perkelti pele per norėdami pamatyti stoties vardą.

Tada spustelėkite, norėdami matyti oro stebėjimo ir prognozės.

Norėdami pakeisti žemėlapį: spustelėkite ant žalios mygtukų su juodo kryžiaus žemyn,; žalią mygtuką su brūkšneliu, jei norite nutolinti; arba žalių rodyklių gretimoms žemėlapius.


METAR-TAF: